sensor_id;sensor_type;location;lat;lon;timestamp;pressure;altitude;pressure_sealevel;temperature;humidity
5877;BME280;2964;42.144;24.730;2023-05-19T00:02:18;145253.75;;;14.81;92.59
5877;BME280;2964;42.144;24.730;2023-05-19T00:04:45;145318.03;;;15.08;92.65
5877;BME280;2964;42.144;24.730;2023-05-19T00:07:16;145336.94;;;15.15;92.24
5877;BME280;2964;42.144;24.730;2023-05-19T00:09:44;145326.84;;;15.11;92.81
5877;BME280;2964;42.144;24.730;2023-05-19T00:12:13;145320.53;;;15.09;92.50
5877;BME280;2964;42.144;24.730;2023-05-19T00:14:40;145311.75;;;15.05;92.93
5877;BME280;2964;42.144;24.730;2023-05-19T00:17:08;145305.41;;;15.02;93.04
5877;BME280;2964;42.144;24.730;2023-05-19T00:19:34;145276.44;;;14.91;93.22
5877;BME280;2964;42.144;24.730;2023-05-19T00:22:02;145276.44;;;14.91;93.27
5877;BME280;2964;42.144;24.730;2023-05-19T00:24:29;145300.38;;;15.00;92.91
5877;BME280;2964;42.144;24.730;2023-05-19T00:26:56;145296.59;;;14.99;92.76
5877;BME280;2964;42.144;24.730;2023-05-19T00:29:24;145256.25;;;14.82;92.99
5877;BME280;2964;42.144;24.730;2023-05-19T00:31:50;145258.81;;;14.83;93.51
5877;BME280;2964;42.144;24.730;2023-05-19T00:34:17;145276.44;;;14.91;93.65
5877;BME280;2964;42.144;24.730;2023-05-19T00:36:43;145329.34;;;15.12;92.23
5877;BME280;2964;42.144;24.730;2023-05-19T00:39:10;145316.78;;;15.07;92.42
5877;BME280;2964;42.144;24.730;2023-05-19T00:41:37;145326.84;;;15.11;91.67
5877;BME280;2964;42.144;24.730;2023-05-19T00:44:05;145330.66;;;15.13;91.56
5877;BME280;2964;42.144;24.730;2023-05-19T00:46:33;145299.13;;;15.00;92.08
5877;BME280;2964;42.144;24.730;2023-05-19T00:49:00;145324.31;;;15.10;91.19
5877;BME280;2964;42.144;24.730;2023-05-19T00:51:27;145341.97;;;15.17;90.60
5877;BME280;2964;42.144;24.730;2023-05-19T00:53:54;145323.06;;;15.10;91.25
5877;BME280;2964;42.144;24.730;2023-05-19T00:56:21;145281.50;;;14.93;90.80
5877;BME280;2964;42.144;24.730;2023-05-19T00:58:49;145320.53;;;15.09;91.22
5877;BME280;2964;42.144;24.730;2023-05-19T01:01:16;145326.84;;;15.11;90.87
5877;BME280;2964;42.144;24.730;2023-05-19T01:03:47;145285.28;;;14.94;91.82
5877;BME280;2964;42.144;24.730;2023-05-19T01:06:13;145311.75;;;15.05;91.38
5877;BME280;2964;42.144;24.730;2023-05-19T01:08:40;145319.28;;;15.08;91.22
5877;BME280;2964;42.144;24.730;2023-05-19T01:11:07;145315.50;;;15.06;90.90
5877;BME280;2964;42.144;24.730;2023-05-19T01:13:35;145297.84;;;14.99;92.07
5877;BME280;2964;42.144;24.730;2023-05-19T01:16:06;145311.75;;;15.05;90.98
5877;BME280;2964;42.144;24.730;2023-05-19T01:18:57;145334.44;;;15.14;90.50
5877;BME280;2964;42.144;24.730;2023-05-19T01:21:52;145314.25;;;15.06;91.05
5877;BME280;2964;42.144;24.730;2023-05-19T01:24:54;145324.31;;;15.10;90.85
5877;BME280;2964;42.144;24.730;2023-05-19T01:27:46;145270.13;;;14.88;91.70
5877;BME280;2964;42.144;24.730;2023-05-19T01:30:29;145278.94;;;14.92;91.64
5877;BME280;2964;42.144;24.730;2023-05-19T01:32:58;145301.63;;;15.01;90.82
5877;BME280;2964;42.144;24.730;2023-05-19T01:35:26;145319.28;;;15.08;90.25
5877;BME280;2964;42.144;24.730;2023-05-19T01:37:55;145319.28;;;15.08;89.77
5877;BME280;2964;42.144;24.730;2023-05-19T01:40:23;145297.84;;;14.99;90.65
5877;BME280;2964;42.144;24.730;2023-05-19T01:42:52;145291.56;;;14.97;90.88
5877;BME280;2964;42.144;24.730;2023-05-19T01:45:19;145273.91;;;14.90;91.06
5877;BME280;2964;42.144;24.730;2023-05-19T01:47:50;145294.09;;;14.98;90.20
5877;BME280;2964;42.144;24.730;2023-05-19T01:50:17;145299.13;;;15.00;89.72
5877;BME280;2964;42.144;24.730;2023-05-19T01:52:44;145281.50;;;14.93;90.78
5877;BME280;2964;42.144;24.730;2023-05-19T01:55:11;145299.13;;;15.00;90.59
5877;BME280;2964;42.144;24.730;2023-05-19T01:57:43;145306.66;;;15.03;89.95
5877;BME280;2964;42.144;24.730;2023-05-19T02:00:17;145328.09;;;15.12;89.66
5877;BME280;2964;42.144;24.730;2023-05-19T02:02:55;145302.94;;;15.01;90.46
5877;BME280;2964;42.144;24.730;2023-05-19T02:05:26;145324.31;;;15.10;90.14
5877;BME280;2964;42.144;24.730;2023-05-19T02:08:00;145344.50;;;15.18;89.32
5877;BME280;2964;42.144;24.730;2023-05-19T02:10:32;145311.75;;;15.05;89.63
5877;BME280;2964;42.144;24.730;2023-05-19T02:13:04;145281.50;;;14.93;89.81
5877;BME280;2964;42.144;24.730;2023-05-19T02:15:38;145287.78;;;14.95;90.44
5877;BME280;2964;42.144;24.730;2023-05-19T02:18:08;145345.75;;;15.19;89.52
5877;BME280;2964;42.144;24.730;2023-05-19T02:20:36;145282.72;;;14.93;88.79
5877;BME280;2964;42.144;24.730;2023-05-19T02:23:03;145335.69;;;15.15;89.26
5877;BME280;2964;42.144;24.730;2023-05-19T02:25:29;145325.63;;;15.11;88.83
5877;BME280;2964;42.144;24.730;2023-05-19T02:27:57;145320.53;;;15.09;89.27
5877;BME280;2964;42.144;24.730;2023-05-19T02:30:24;145283.97;;;14.94;89.67
5877;BME280;2964;42.144;24.730;2023-05-19T02:32:50;145228.53;;;14.71;90.62
5877;BME280;2964;42.144;24.730;2023-05-19T02:35:20;145272.66;;;14.89;90.37
5877;BME280;2964;42.144;24.730;2023-05-19T02:37:46;145260.06;;;14.84;90.51
5877;BME280;2964;42.144;24.730;2023-05-19T02:40:13;145214.69;;;14.65;91.76
5877;BME280;2964;42.144;24.730;2023-05-19T02:42:40;145218.47;;;14.67;91.86
5877;BME280;2964;42.144;24.730;2023-05-19T02:45:07;145168.03;;;14.46;90.82
5877;BME280;2964;42.144;24.730;2023-05-19T02:47:34;145217.22;;;14.66;91.34
5877;BME280;2964;42.144;24.730;2023-05-19T02:50:00;145231.09;;;14.72;91.38
5877;BME280;2964;42.144;24.730;2023-05-19T02:52:29;145242.41;;;14.77;91.59
5877;BME280;2964;42.144;24.730;2023-05-19T02:54:55;145202.06;;;14.60;92.22
5877;BME280;2964;42.144;24.730;2023-05-19T02:57:22;145222.25;;;14.69;91.78
5877;BME280;2964;42.144;24.730;2023-05-19T02:59:49;145203.38;;;14.61;92.37
5877;BME280;2964;42.144;24.730;2023-05-19T03:02:15;145190.69;;;14.56;92.06
5877;BME280;2964;42.144;24.730;2023-05-19T03:04:42;145163.00;;;14.44;92.80
5877;BME280;2964;42.144;24.730;2023-05-19T03:07:10;145178.09;;;14.51;92.79
5877;BME280;2964;42.144;24.730;2023-05-19T03:09:39;145185.66;;;14.54;92.76
5877;BME280;2964;42.144;24.730;2023-05-19T03:12:05;145186.91;;;14.54;92.72
5877;BME280;2964;42.144;24.730;2023-05-19T03:14:33;145160.44;;;14.43;93.35
5877;BME280;2964;42.144;24.730;2023-05-19T03:17:01;145155.41;;;14.41;94.16
5877;BME280;2964;42.144;24.730;2023-05-19T03:19:28;145218.47;;;14.67;92.46
5877;BME280;2964;42.144;24.730;2023-05-19T03:21:56;145199.56;;;14.59;92.58
5877;BME280;2964;42.144;24.730;2023-05-19T03:24:23;145213.44;;;14.65;92.15
5877;BME280;2964;42.144;24.730;2023-05-19T03:26:51;145223.50;;;14.69;92.31
5877;BME280;2964;42.144;24.730;2023-05-19T03:29:18;145228.53;;;14.71;92.06
5877;BME280;2964;42.144;24.730;2023-05-19T03:31:45;145241.16;;;14.76;91.71
5877;BME280;2964;42.144;24.730;2023-05-19T03:34:12;145238.59;;;14.75;91.63
5877;BME280;2964;42.144;24.730;2023-05-19T03:36:39;145271.41;;;14.89;92.01
5877;BME280;2964;42.144;24.730;2023-05-19T03:39:06;145301.63;;;15.01;91.89
5877;BME280;2964;42.144;24.730;2023-05-19T03:41:33;145233.56;;;14.73;92.56
5877;BME280;2964;42.144;24.730;2023-05-19T03:44:01;145256.25;;;14.82;92.62
5877;BME280;2964;42.144;24.730;2023-05-19T03:46:28;145275.16;;;14.90;92.17
5877;BME280;2964;42.144;24.730;2023-05-19T03:48:54;145285.28;;;14.94;92.09
5877;BME280;2964;42.144;24.730;2023-05-19T03:51:21;145295.34;;;14.98;91.68
5877;BME280;2964;42.144;24.730;2023-05-19T03:53:48;145300.38;;;15.00;90.40
5877;BME280;2964;42.144;24.730;2023-05-19T03:56:15;145339.47;;;15.16;90.63
5877;BME280;2964;42.144;24.730;2023-05-19T03:58:42;145369.69;;;15.29;89.64
5877;BME280;2964;42.144;24.730;2023-05-19T04:01:12;145365.97;;;15.27;89.72
5877;BME280;2964;42.144;24.730;2023-05-19T04:03:39;145379.81;;;15.33;90.14
5877;BME280;2964;42.144;24.730;2023-05-19T04:06:06;145363.41;;;15.26;88.83
5877;BME280;2964;42.144;24.730;2023-05-19T04:08:33;145352.03;;;15.21;90.38
5877;BME280;2964;42.144;24.730;2023-05-19T04:10:59;145348.31;;;15.20;89.99
5877;BME280;2964;42.144;24.730;2023-05-19T04:13:26;145384.84;;;15.35;89.77
5877;BME280;2964;42.144;24.730;2023-05-19T04:15:53;145394.94;;;15.39;89.33
5877;BME280;2964;42.144;24.730;2023-05-19T04:18:21;145379.81;;;15.33;89.01
5877;BME280;2964;42.144;24.730;2023-05-19T04:20:48;145421.41;;;15.50;89.19
5877;BME280;2964;42.144;24.730;2023-05-19T04:23:15;145387.34;;;15.36;89.14
5877;BME280;2964;42.144;24.730;2023-05-19T04:25:42;145413.84;;;15.47;89.81
5877;BME280;2964;42.144;24.730;2023-05-19T04:28:08;145425.22;;;15.51;89.25
5877;BME280;2964;42.144;24.730;2023-05-19T04:30:35;145426.47;;;15.52;89.17
5877;BME280;2964;42.144;24.730;2023-05-19T04:33:02;145440.31;;;15.57;89.24
5877;BME280;2964;42.144;24.730;2023-05-19T04:35:30;145377.28;;;15.32;88.79
5877;BME280;2964;42.144;24.730;2023-05-19T04:37:57;145499.63;;;15.81;88.05
5877;BME280;2964;42.144;24.730;2023-05-19T04:40:25;145468.06;;;15.69;88.50
5877;BME280;2964;42.144;24.730;2023-05-19T04:42:55;145508.47;;;15.85;87.90
5877;BME280;2964;42.144;24.730;2023-05-19T04:45:22;145490.81;;;15.78;88.06
5877;BME280;2964;42.144;24.730;2023-05-19T04:47:50;145505.94;;;15.84;88.17
5877;BME280;2964;42.144;24.730;2023-05-19T04:50:17;145552.63;;;16.03;87.29
5877;BME280;2964;42.144;24.730;2023-05-19T04:52:45;145576.59;;;16.13;87.65
5877;BME280;2964;42.144;24.730;2023-05-19T04:55:11;145739.38;;;16.79;87.30
5877;BME280;2964;42.144;24.730;2023-05-19T04:57:38;146144.84;;;18.44;81.15
5877;BME280;2964;42.144;24.730;2023-05-19T05:00:06;146571.06;;;20.17;76.12
5877;BME280;2964;42.144;24.730;2023-05-19T05:02:36;146978.81;;;21.82;70.45
5877;BME280;2964;42.144;24.730;2023-05-19T05:05:03;147296.94;;;23.11;65.29
5877;BME280;2964;42.144;24.730;2023-05-19T05:07:30;147392.03;;;23.49;64.14
5877;BME280;2964;42.144;24.730;2023-05-19T05:09:58;147351.44;;;23.33;62.94
5877;BME280;2964;42.144;24.730;2023-05-19T05:12:25;147573.47;;;24.23;61.23
5877;BME280;2964;42.144;24.730;2023-05-19T05:14:52;147927.72;;;25.66;58.57
5877;BME280;2964;42.144;24.730;2023-05-19T05:17:20;147951.84;;;25.76;56.01
5877;BME280;2964;42.144;24.730;2023-05-19T05:19:47;147969.63;;;25.83;56.16
5877;BME280;2964;42.144;24.730;2023-05-19T05:22:17;147978.53;;;25.87;54.80
5877;BME280;2964;42.144;24.730;2023-05-19T05:24:44;148166.63;;;26.63;53.82
5877;BME280;2964;42.144;24.730;2023-05-19T05:27:12;148282.28;;;27.09;52.34
5877;BME280;2964;42.144;24.730;2023-05-19T05:29:39;148061.13;;;26.20;54.02
5877;BME280;2964;42.144;24.730;2023-05-19T05:32:06;148104.34;;;26.37;54.82
5877;BME280;2964;42.144;24.730;2023-05-19T05:34:33;148245.41;;;26.94;52.32
5877;BME280;2964;42.144;24.730;2023-05-19T05:37:01;148158.94;;;26.59;54.00
5877;BME280;2964;42.144;24.730;2023-05-19T05:39:28;148123.41;;;26.45;54.22
5877;BME280;2964;42.144;24.730;2023-05-19T05:41:56;148162.81;;;26.61;53.00
5877;BME280;2964;42.144;24.730;2023-05-19T05:44:24;148372.59;;;27.46;51.10
5877;BME280;2964;42.144;24.730;2023-05-19T05:46:51;148358.59;;;27.40;52.46
5877;BME280;2964;42.144;24.730;2023-05-19T05:49:18;148740.31;;;28.94;47.71
5877;BME280;2964;42.144;24.730;2023-05-19T05:51:45;148549.41;;;28.17;47.92
5877;BME280;2964;42.144;24.730;2023-05-19T05:54:14;148648.69;;;28.57;47.86
5877;BME280;2964;42.144;24.730;2023-05-19T05:56:43;148963.13;;;29.84;41.75
5877;BME280;2964;42.144;24.730;2023-05-19T05:59:10;148653.78;;;28.59;41.80
5877;BME280;2964;42.144;24.730;2023-05-19T06:01:38;148854.91;;;29.40;42.86
5877;BME280;2964;42.144;24.730;2023-05-19T06:04:06;148518.88;;;28.05;44.41
5877;BME280;2964;42.144;24.730;2023-05-19T06:06:33;148866.34;;;29.45;43.15
5877;BME280;2964;42.144;24.730;2023-05-19T06:09:00;149089.28;;;30.35;40.28
5877;BME280;2964;42.144;24.730;2023-05-19T06:11:27;149109.63;;;30.43;41.08
5877;BME280;2964;42.144;24.730;2023-05-19T06:13:53;149088.00;;;30.34;39.43
5877;BME280;2964;42.144;24.730;2023-05-19T06:16:20;148791.25;;;29.15;43.43
5877;BME280;2964;42.144;24.730;2023-05-19T06:18:48;148763.22;;;29.03;42.66
5877;BME280;2964;42.144;24.730;2023-05-19T06:21:15;149093.09;;;30.36;40.59
5877;BME280;2964;42.144;24.730;2023-05-19T06:23:42;149253.66;;;31.01;40.66
5877;BME280;2964;42.144;24.730;2023-05-19T06:26:09;149399.00;;;31.60;38.14
5877;BME280;2964;42.144;24.730;2023-05-19T06:28:35;149183.53;;;30.73;39.07
5877;BME280;2964;42.144;24.730;2023-05-19T06:31:02;148764.47;;;29.04;41.47
5877;BME280;2964;42.144;24.730;2023-05-19T06:33:29;148335.72;;;27.31;45.42
5877;BME280;2964;42.144;24.730;2023-05-19T06:35:57;148493.47;;;27.95;44.15
5877;BME280;2964;42.144;24.730;2023-05-19T06:38:23;148178.09;;;26.67;46.28
5877;BME280;2964;42.144;24.730;2023-05-19T06:40:50;148256.88;;;26.99;47.05
5877;BME280;2964;42.144;24.730;2023-05-19T06:43:17;148381.50;;;27.49;47.15
5877;BME280;2964;42.144;24.730;2023-05-19T06:45:43;148572.31;;;28.26;45.30
5877;BME280;2964;42.144;24.730;2023-05-19T06:48:10;148819.25;;;29.26;43.59
5877;BME280;2964;42.144;24.730;2023-05-19T06:50:37;148834.50;;;29.32;42.08
5877;BME280;2964;42.144;24.730;2023-05-19T06:53:05;148602.84;;;28.39;43.59
5877;BME280;2964;42.144;24.730;2023-05-19T06:55:32;148913.47;;;29.64;43.12
5877;BME280;2964;42.144;24.730;2023-05-19T06:57:58;149061.22;;;30.24;41.07
5877;BME280;2964;42.144;24.730;2023-05-19T07:00:25;149038.28;;;30.14;40.97
5877;BME280;2964;42.144;24.730;2023-05-19T07:02:52;148460.31;;;27.81;43.63
5877;BME280;2964;42.144;24.730;2023-05-19T07:05:19;148403.13;;;27.58;45.33
5877;BME280;2964;42.144;24.730;2023-05-19T07:07:45;148551.94;;;28.18;45.11
5877;BME280;2964;42.144;24.730;2023-05-19T07:10:14;148338.28;;;27.32;46.41
5877;BME280;2964;42.144;24.730;2023-05-19T07:12:40;148438.72;;;27.72;45.81
5877;BME280;2964;42.144;24.730;2023-05-19T07:15:07;148381.50;;;27.49;47.03
5877;BME280;2964;42.144;24.730;2023-05-19T07:17:34;148807.78;;;29.21;43.73
5877;BME280;2964;42.144;24.730;2023-05-19T07:20:01;148753.00;;;28.99;44.29
5877;BME280;2964;42.144;24.730;2023-05-19T07:22:30;148791.25;;;29.15;43.65
5877;BME280;2964;42.144;24.730;2023-05-19T07:24:59;148457.78;;;27.80;46.25
5877;BME280;2964;42.144;24.730;2023-05-19T07:27:27;148306.47;;;27.19;48.65
5877;BME280;2964;42.144;24.730;2023-05-19T07:29:54;148434.91;;;27.71;45.51
5877;BME280;2964;42.144;24.730;2023-05-19T07:32:20;148429.81;;;27.69;47.09
5877;BME280;2964;42.144;24.730;2023-05-19T07:34:47;148870.16;;;29.47;43.61
5877;BME280;2964;42.144;24.730;2023-05-19T07:37:14;149117.28;;;30.46;42.22
5877;BME280;2964;42.144;24.730;2023-05-19T07:39:41;148764.47;;;29.04;42.67
5877;BME280;2964;42.144;24.730;2023-05-19T07:42:09;148918.56;;;29.66;41.65
5877;BME280;2964;42.144;24.730;2023-05-19T07:44:37;149132.56;;;30.52;40.88
5877;BME280;2964;42.144;24.730;2023-05-19T07:47:04;149433.38;;;31.73;38.97
5877;BME280;2964;42.144;24.730;2023-05-19T07:49:31;149367.06;;;31.47;39.02
5877;BME280;2964;42.144;24.730;2023-05-19T07:51:57;149175.88;;;30.70;38.96
5877;BME280;2964;42.144;24.730;2023-05-19T07:54:24;148674.13;;;28.67;43.71
5877;BME280;2964;42.144;24.730;2023-05-19T07:56:51;148775.91;;;29.08;43.40
5877;BME280;2964;42.144;24.730;2023-05-19T07:59:18;148485.81;;;27.91;44.61
5877;BME280;2964;42.144;24.730;2023-05-19T08:01:46;148529.03;;;28.09;45.04
5877;BME280;2964;42.144;24.730;2023-05-19T08:04:12;148833.25;;;29.32;43.48
5877;BME280;2964;42.144;24.730;2023-05-19T08:06:39;149022.97;;;30.08;41.20
5877;BME280;2964;42.144;24.730;2023-05-19T08:09:07;149363.25;;;31.45;38.17
5877;BME280;2964;42.144;24.730;2023-05-19T08:11:33;149230.72;;;30.92;38.45
5877;BME280;2964;42.144;24.730;2023-05-19T08:14:01;149242.16;;;30.96;38.00
5877;BME280;2964;42.144;24.730;2023-05-19T08:16:27;149522.69;;;32.09;37.32
5877;BME280;2964;42.144;24.730;2023-05-19T08:18:56;149645.13;;;32.59;36.19
5877;BME280;2964;42.144;24.730;2023-05-19T08:21:25;149790.59;;;33.17;34.42
5877;BME280;2964;42.144;24.730;2023-05-19T08:23:51;149919.50;;;33.69;33.67
5877;BME280;2964;42.144;24.730;2023-05-19T08:26:18;150019.06;;;34.09;32.90
5877;BME280;2964;42.144;24.730;2023-05-19T08:28:45;150201.72;;;34.83;32.34
5877;BME280;2964;42.144;24.730;2023-05-19T08:31:12;150495.59;;;36.01;29.04
5877;BME280;2964;42.144;24.730;2023-05-19T08:33:39;149951.41;;;33.82;30.24
5877;BME280;2964;42.144;24.730;2023-05-19T08:36:07;150012.66;;;34.07;31.36
5877;BME280;2964;42.144;24.730;2023-05-19T08:38:33;149721.66;;;32.89;33.29
5877;BME280;2964;42.144;24.730;2023-05-19T08:41:00;150165.97;;;34.68;30.36
5877;BME280;2964;42.144;24.730;2023-05-19T08:43:27;149631.03;;;32.53;33.97
5877;BME280;2964;42.144;24.730;2023-05-19T08:45:54;150224.72;;;34.92;30.62
5877;BME280;2964;42.144;24.730;2023-05-19T08:48:21;150379.25;;;35.54;29.89
5877;BME280;2964;42.144;24.730;2023-05-19T08:50:56;150922.75;;;37.72;26.60
5877;BME280;2964;42.144;24.730;2023-05-19T08:53:30;151087.78;;;38.38;25.89
5877;BME280;2964;42.144;24.730;2023-05-19T08:56:04;151199.16;;;38.83;24.62
5877;BME280;2964;42.144;24.730;2023-05-19T08:58:36;150744.91;;;37.01;25.24
5877;BME280;2964;42.144;24.730;2023-05-19T09:01:05;150615.75;;;36.49;24.62
5877;BME280;2964;42.144;24.730;2023-05-19T09:03:32;150894.53;;;37.61;25.95
5877;BME280;2964;42.144;24.730;2023-05-19T09:06:04;150953.41;;;37.84;25.53
5877;BME280;2964;42.144;24.730;2023-05-19T09:08:34;151160.72;;;38.68;24.74
5877;BME280;2964;42.144;24.730;2023-05-19T09:11:01;151241.38;;;39.00;24.64
5877;BME280;2964;42.144;24.730;2023-05-19T09:13:28;151621.78;;;40.52;23.80
5877;BME280;2964;42.144;24.730;2023-05-19T09:15:55;151242.69;;;39.00;24.29
5877;BME280;2964;42.144;24.730;2023-05-19T09:18:23;151169.69;;;38.71;25.72
5877;BME280;2964;42.144;24.730;2023-05-19T09:20:55;150925.28;;;37.73;24.14
5877;BME280;2964;42.144;24.730;2023-05-19T09:23:25;150544.19;;;36.20;24.90
5877;BME280;2964;42.144;24.730;2023-05-19T09:25:54;150535.19;;;36.17;24.54
5877;BME280;2964;42.144;24.730;2023-05-19T09:28:25;149839.09;;;33.37;28.61
5877;BME280;2964;42.144;24.730;2023-05-19T09:31:03;150172.31;;;34.71;27.70
5877;BME280;2964;42.144;24.730;2023-05-19T09:33:32;150385.69;;;35.56;27.45
5877;BME280;2964;42.144;24.730;2023-05-19T09:35:59;150418.94;;;35.70;26.82
5877;BME280;2964;42.144;24.730;2023-05-19T09:38:26;150629.81;;;36.55;25.63
5877;BME280;2964;42.144;24.730;2023-05-19T09:40:57;151050.66;;;38.23;25.46
5877;BME280;2964;42.144;24.730;2023-05-19T09:43:26;150642.59;;;36.60;26.53
5877;BME280;2964;42.144;24.730;2023-05-19T09:45:57;150629.81;;;36.55;26.03
5877;BME280;2964;42.144;24.730;2023-05-19T09:48:25;150909.94;;;37.67;26.14
5877;BME280;2964;42.144;24.730;2023-05-19T09:50:53;150592.75;;;36.40;25.77
5877;BME280;2964;42.144;24.730;2023-05-19T09:53:20;150523.69;;;36.12;27.32
5877;BME280;2964;42.144;24.730;2023-05-19T09:55:46;149415.53;;;31.66;28.36
5877;BME280;2964;42.144;24.730;2023-05-19T09:58:17;149016.63;;;30.06;33.19
5877;BME280;2964;42.144;24.730;2023-05-19T10:00:45;149138.94;;;30.55;33.19
5877;BME280;2964;42.144;24.730;2023-05-19T10:03:12;148562.13;;;28.22;34.91
5877;BME280;2964;42.144;24.730;2023-05-19T10:05:41;148365.00;;;27.43;37.10
5877;BME280;2964;42.144;24.730;2023-05-19T10:08:08;148259.38;;;27.00;39.53
5877;BME280;2964;42.144;24.730;2023-05-19T10:10:37;148279.75;;;27.08;41.73
5877;BME280;2964;42.144;24.730;2023-05-19T10:13:04;148216.19;;;26.83;42.51
5877;BME280;2964;42.144;24.730;2023-05-19T10:15:33;148131.00;;;26.48;45.93
5877;BME280;2964;42.144;24.730;2023-05-19T10:18:01;148132.31;;;26.49;46.82
5877;BME280;2964;42.144;24.730;2023-05-19T10:20:29;148047.16;;;26.14;44.82
5877;BME280;2964;42.144;24.730;2023-05-19T10:22:56;147954.41;;;25.77;43.33
5877;BME280;2964;42.144;24.730;2023-05-19T10:25:23;147968.38;;;25.83;46.33
5877;BME280;2964;42.144;24.730;2023-05-19T10:27:53;147885.84;;;25.49;46.65
5877;BME280;2964;42.144;24.730;2023-05-19T10:30:25;147922.66;;;25.64;46.71
5877;BME280;2964;42.144;24.730;2023-05-19T10:32:55;147798.13;;;25.14;47.03
5877;BME280;2964;42.144;24.730;2023-05-19T10:35:39;147774.03;;;25.04;43.75
5877;BME280;2964;42.144;24.730;2023-05-19T10:38:15;147702.97;;;24.75;44.12
5877;BME280;2964;42.144;24.730;2023-05-19T10:40:52;147725.84;;;24.84;44.21
5877;BME280;2964;42.144;24.730;2023-05-19T10:43:29;147730.91;;;24.87;43.73
5877;BME280;2964;42.144;24.730;2023-05-19T10:45:58;147730.91;;;24.87;44.07
5877;BME280;2964;42.144;24.730;2023-05-19T10:48:32;147817.22;;;25.21;43.86
5877;BME280;2964;42.144;24.730;2023-05-19T10:50:58;147845.19;;;25.33;43.98
5877;BME280;2964;42.144;24.730;2023-05-19T10:53:30;147696.59;;;24.73;43.12
5877;BME280;2964;42.144;24.730;2023-05-19T10:55:57;147720.72;;;24.82;41.87
5877;BME280;2964;42.144;24.730;2023-05-19T10:58:37;147758.81;;;24.98;43.71
5877;BME280;2964;42.144;24.730;2023-05-19T11:01:08;147676.31;;;24.64;42.72
5877;BME280;2964;42.144;24.730;2023-05-19T11:03:46;147638.16;;;24.49;45.33
5877;BME280;2964;42.144;24.730;2023-05-19T11:06:17;147620.41;;;24.42;47.26
5877;BME280;2964;42.144;24.730;2023-05-19T11:08:44;147572.22;;;24.22;49.64
5877;BME280;2964;42.144;24.730;2023-05-19T11:11:13;147502.47;;;23.94;48.18
5877;BME280;2964;42.144;24.730;2023-05-19T11:13:42;147586.16;;;24.28;47.18
5877;BME280;2964;42.144;24.730;2023-05-19T11:16:12;147656.00;;;24.56;47.25
5877;BME280;2964;42.144;24.730;2023-05-19T11:18:39;147682.66;;;24.67;45.52
5877;BME280;2964;42.144;24.730;2023-05-19T11:21:07;147581.09;;;24.26;44.98
5877;BME280;2964;42.144;24.730;2023-05-19T11:23:37;147480.88;;;23.85;46.56
5877;BME280;2964;42.144;24.730;2023-05-19T11:26:05;147328.63;;;23.24;47.60
5877;BME280;2964;42.144;24.730;2023-05-19T11:28:33;147350.19;;;23.32;47.70
5877;BME280;2964;42.144;24.730;2023-05-19T11:31:01;147276.63;;;23.03;50.70
5877;BME280;2964;42.144;24.730;2023-05-19T11:33:28;147205.63;;;22.74;47.69
5877;BME280;2964;42.144;24.730;2023-05-19T11:35:57;147272.81;;;23.01;46.84
5877;BME280;2964;42.144;24.730;2023-05-19T11:38:26;147198.03;;;22.71;47.49
5877;BME280;2964;42.144;24.730;2023-05-19T11:40:54;147247.47;;;22.91;47.17
5877;BME280;2964;42.144;24.730;2023-05-19T11:43:22;147227.16;;;22.83;46.56
5877;BME280;2964;42.144;24.730;2023-05-19T11:45:49;147218.31;;;22.79;47.93
5877;BME280;2964;42.144;24.730;2023-05-19T11:48:15;147151.13;;;22.52;47.15
5877;BME280;2964;42.144;24.730;2023-05-19T11:50:42;147269.00;;;23.00;47.59
5877;BME280;2964;42.144;24.730;2023-05-19T11:53:11;147250.00;;;22.92;46.59
5877;BME280;2964;42.144;24.730;2023-05-19T11:55:44;147184.09;;;22.65;47.29
5877;BME280;2964;42.144;24.730;2023-05-19T11:58:11;147261.41;;;22.97;47.41
5877;BME280;2964;42.144;24.730;2023-05-19T12:00:39;147327.38;;;23.23;46.77
5877;BME280;2964;42.144;24.730;2023-05-19T12:03:06;147332.44;;;23.25;47.36
5877;BME280;2964;42.144;24.730;2023-05-19T12:05:35;147374.28;;;23.42;47.38
5877;BME280;2964;42.144;24.730;2023-05-19T12:08:03;147421.22;;;23.61;46.30
5877;BME280;2964;42.144;24.730;2023-05-19T12:10:30;147411.09;;;23.57;47.56
5877;BME280;2964;42.144;24.730;2023-05-19T12:13:00;147461.81;;;23.78;47.28
5877;BME280;2964;42.144;24.730;2023-05-19T12:15:27;147532.88;;;24.06;47.07
5877;BME280;2964;42.144;24.730;2023-05-19T12:17:56;147499.91;;;23.93;45.89
5877;BME280;2964;42.144;24.730;2023-05-19T12:20:24;147477.06;;;23.84;47.14
5877;BME280;2964;42.144;24.730;2023-05-19T12:22:56;147456.75;;;23.76;47.09
5877;BME280;2964;42.144;24.730;2023-05-19T12:25:23;147449.13;;;23.73;47.87
5877;BME280;2964;42.144;24.730;2023-05-19T12:27:50;147426.28;;;23.63;46.22
5877;BME280;2964;42.144;24.730;2023-05-19T12:30:25;147449.13;;;23.73;46.91
5877;BME280;2964;42.144;24.730;2023-05-19T12:32:53;147423.72;;;23.62;48.07
5877;BME280;2964;42.144;24.730;2023-05-19T12:35:25;147452.94;;;23.74;48.16
5877;BME280;2964;42.144;24.730;2023-05-19T12:37:52;147463.06;;;23.78;48.04
5877;BME280;2964;42.144;24.730;2023-05-19T12:40:22;147403.47;;;23.54;47.11
5877;BME280;2964;42.144;24.730;2023-05-19T12:42:48;147427.56;;;23.64;48.00
5877;BME280;2964;42.144;24.730;2023-05-19T12:45:19;147437.69;;;23.68;48.70
5877;BME280;2964;42.144;24.730;2023-05-19T12:47:51;147417.41;;;23.60;46.49
5877;BME280;2964;42.144;24.730;2023-05-19T12:50:17;147402.22;;;23.54;47.04
5877;BME280;2964;42.144;24.730;2023-05-19T12:52:45;147423.72;;;23.62;47.18
5877;BME280;2964;42.144;24.730;2023-05-19T12:55:12;147356.56;;;23.35;46.51
5877;BME280;2964;42.144;24.730;2023-05-19T12:57:42;147431.38;;;23.65;47.44
5877;BME280;2964;42.144;24.730;2023-05-19T13:00:13;147400.91;;;23.53;47.29
5877;BME280;2964;42.144;24.730;2023-05-19T13:02:57;147437.69;;;23.68;48.13
5877;BME280;2964;42.144;24.730;2023-05-19T13:05:24;147437.69;;;23.68;45.91
5877;BME280;2964;42.144;24.730;2023-05-19T13:07:58;147451.63;;;23.74;47.08